^^
Saratoga-Weather Station Historical Data
Daily Summary for February 8, 2021 Units:  English    Metric   Both
Daily Weekly Monthly Yearly Custom
  High: Low: Average:
Temperature: 47.3 °F 32.5 °F 38.8 °F
Dew Point: 44.4 °F 31.5 °F 37.4 °F
Humidity: 97% 88% 95%
Wind Speed: 2.9mph 0mph 0.3mph
Wind Gust: 5mph - -
Wind- - SE
Pressure: 30.3 in 30.2 in -
Precipitation: 0 in    
Historical Graphs
 
 
Tabular Data for February 8, 2021
Time Temperature Dew Point Pressure Wind Wind Speed Wind Gust Humidity Rainfall Rate (Hourly) solar
00:04 42.1 °F 39.4 °F 30.2 in East 2 mph 2 mph 90% 0 in 0 W/m2
00:09 41.5 °F 38.8 °F 30.2 in ESE 2.9 mph 3 mph 90% 0 in 0 W/m2
00:14 41 °F 38.3 °F 30.2 in ESE 0.9 mph 2 mph 90% 0 in 0 W/m2
00:19 40.6 °F 38.3 °F 30.2 in ESE 2 mph 3 mph 91% 0 in 0 W/m2
00:24 40.3 °F 38.1 °F 30.2 in Calm   2 mph 92% 0 in 0 W/m2
00:29 40.1 °F 37.9 °F 30.2 in Calm   3 mph 92% 0 in 0 W/m2
00:34 39.7 °F 37.6 °F 30.2 in Calm     92% 0 in 0 W/m2
00:39 39.6 °F 37.8 °F 30.2 in ESE 0.9 mph 3 mph 93% 0 in 0 W/m2
00:44 39.6 °F 37.8 °F 30.2 in Calm     93% 0 in 0 W/m2
00:49 39.4 °F 37.6 °F 30.2 in NW 2 mph 2 mph 93% 0 in 0 W/m2
00:54 39.4 °F 37.8 °F 30.2 in West 2 mph 2 mph 94% 0 in 0 W/m2
00:59 39.4 °F 37.8 °F 30.2 in Calm     94% 0 in 0 W/m2
01:04 39.2 °F 37.6 °F 30.2 in Calm     94% 0 in 0 W/m2
01:09 39 °F 37.4 °F 30.2 in Calm     94% 0 in 0 W/m2
01:14 38.8 °F 37.2 °F 30.2 in Calm     94% 0 in 0 W/m2
01:19 39 °F 37.4 °F 30.2 in Calm     94% 0 in 0 W/m2
01:24 39 °F 37.8 °F 30.2 in ESE 2 mph 3 mph 95% 0 in 0 W/m2
01:29 39 °F 37.8 °F 30.2 in ESE 2 mph 3 mph 95% 0 in 0 W/m2
01:34 39 °F 37.8 °F 30.2 in ESE 0.9 mph 1 mph 95% 0 in 0 W/m2
01:39 38.8 °F 37.2 °F 30.2 in Calm     94% 0 in 0 W/m2
01:44 38.7 °F 37 °F 30.2 in Calm     94% 0 in 0 W/m2
01:49 38.5 °F 37.2 °F 30.2 in South 0.9 mph 2 mph 95% 0 in 0 W/m2
01:54 38.1 °F 36.5 °F 30.2 in West 2.9 mph 3 mph 94% 0 in 0 W/m2
01:59 38.1 °F 36.9 °F 30.2 in West 2 mph 3 mph 95% 0 in 0 W/m2
02:04 38.1 °F 36.9 °F 30.2 in West 2 mph 4 mph 95% 0 in 0 W/m2
02:09 38.5 °F 37.2 °F 30.2 in West 2 mph 5 mph 95% 0 in 0 W/m2
02:14 38.5 °F 37.2 °F 30.2 in West 0.9 mph 2 mph 95% 0 in 0 W/m2
02:19 38.7 °F 37.4 °F 30.2 in WNW 0.9 mph 5 mph 95% 0 in 0 W/m2
02:24 38.7 °F 37.4 °F 30.2 in Calm   2 mph 95% 0 in 0 W/m2
02:29 38.7 °F 37.4 °F 30.2 in Calm   1 mph 95% 0 in 0 W/m2
02:34 38.5 °F 37.2 °F 30.2 in Calm     95% 0 in 0 W/m2
02:39 38.3 °F 37 °F 30.2 in Calm     95% 0 in 0 W/m2
02:44 38.1 °F 36.9 °F 30.2 in WNW 0.9 mph 2 mph 95% 0 in 0 W/m2
02:49 37.9 °F 36.7 °F 30.2 in Calm   2 mph 95% 0 in 0 W/m2
02:54 37.9 °F 36.7 °F 30.2 in Calm     95% 0 in 0 W/m2
02:59 37.9 °F 36.7 °F 30.2 in Calm     95% 0 in 0 W/m2
03:04 37.8 °F 36.5 °F 30.2 in Calm     95% 0 in 0 W/m2
03:09 37.6 °F 36.3 °F 30.2 in Calm   2 mph 95% 0 in 0 W/m2
03:14 37.4 °F 36.1 °F 30.2 in South 0.9 mph 2 mph 95% 0 in 0 W/m2
03:19 37.4 °F 36.1 °F 30.2 in East 2 mph 4 mph 95% 0 in 0 W/m2
03:24 37.6 °F 36.3 °F 30.2 in Calm     95% 0 in 0 W/m2
03:29 37.4 °F 36.1 °F 30.2 in ESE 0.9 mph 4 mph 95% 0 in 0 W/m2
03:34 37.2 °F 36 °F 30.2 in Calm     95% 0 in 0 W/m2
03:39 37 °F 35.8 °F 30.2 in Calm   2 mph 95% 0 in 0 W/m2
03:44 36.9 °F 35.6 °F 30.2 in Calm     95% 0 in 0 W/m2
03:49 36.7 °F 35.4 °F 30.2 in Calm   2 mph 95% 0 in 0 W/m2
03:54 36.5 °F 35.2 °F 30.2 in Calm   1 mph 95% 0 in 0 W/m2
03:59 36.3 °F 35.1 °F 30.2 in Calm     95% 0 in 0 W/m2
04:04 36.1 °F 34.9 °F 30.2 in NW 0.9 mph 1 mph 95% 0 in 0 W/m2
04:09 36.1 °F 34.9 °F 30.2 in Calm     95% 0 in 0 W/m2
04:14 36 °F 34.7 °F 30.2 in Calm     95% 0 in 0 W/m2
04:19 35.8 °F 34.5 °F 30.2 in Calm     95% 0 in 0 W/m2
04:24 35.6 °F 34.3 °F 30.2 in Calm     95% 0 in 0 W/m2
04:29 35.4 °F 34.2 °F 30.2 in Calm     95% 0 in 0 W/m2
04:34 35.2 °F 34 °F 30.2 in Calm     95% 0 in 0 W/m2
04:39 35.2 °F 34 °F 30.2 in Calm     95% 0 in 0 W/m2
04:44 35.1 °F 33.8 °F 30.2 in Calm     95% 0 in 0 W/m2
04:49 34.9 °F 33.6 °F 30.2 in Calm     95% 0 in 0 W/m2
04:54 34.9 °F 33.6 °F 30.2 in Calm     95% 0 in 0 W/m2
04:59 34.9 °F 33.8 °F 30.2 in Calm     96% 0 in 0 W/m2
05:05 34.7 °F 33.6 °F 30.2 in Calm     96% 0 in 0 W/m2
05:10 34.5 °F 33.3 °F 30.2 in Calm     95% 0 in 0 W/m2
05:15 34.5 °F 33.3 °F 30.2 in Calm     95% 0 in 0 W/m2
05:20 34.3 °F 33.1 °F 30.2 in Calm     95% 0 in 0 W/m2
05:25 34.5 °F 33.4 °F 30.2 in Calm     96% 0 in 0 W/m2
05:30 34.5 °F 33.4 °F 30.2 in Calm     96% 0 in 0 W/m2
05:35 34.5 °F 33.4 °F 30.2 in Calm     96% 0 in 0 W/m2
05:40 34.5 °F 33.4 °F 30.2 in Calm     96% 0 in 0 W/m2
05:45 34.9 °F 33.8 °F 30.2 in Calm     96% 0 in 0 W/m2
05:50 34.9 °F 33.8 °F 30.2 in Calm     96% 0 in 0 W/m2
05:55 34.9 °F 33.8 °F 30.2 in Calm     96% 0 in 0 W/m2
06:00 34.9 °F 33.8 °F 30.2 in Calm     96% 0 in 0 W/m2
06:05 35.1 °F 34 °F 30.2 in Calm     96% 0 in 0 W/m2
06:10 35.1 °F 34 °F 30.2 in Calm     96% 0 in 0 W/m2
06:15 35.1 °F 34 °F 30.2 in Calm     96% 0 in 0 W/m2
06:20 35.2 °F 34.2 °F 30.2 in Calm     96% 0 in 0 W/m2
06:25 35.1 °F 34 °F 30.2 in Calm     96% 0 in 0 W/m2
06:30 35.1 °F 34 °F 30.2 in Calm     96% 0 in 0 W/m2
06:40 34.7 °F 33.6 °F 30.2 in Calm     96% 0 in 0 W/m2
06:45 34.5 °F 33.4 °F 30.2 in Calm     96% 0 in 0 W/m2
06:50 34.5 °F 33.4 °F 30.2 in Calm     96% 0 in 0 W/m2
06:55 34.3 °F 33.3 °F 30.2 in Calm     96% 0 in 0 W/m2
07:00 34.3 °F 33.3 °F 30.2 in Calm     96% 0 in 0 W/m2
07:05 34.3 °F 33.3 °F 30.2 in Calm     96% 0 in 0 W/m2
07:10 34.2 °F 33.1 °F 30.2 in Calm     96% 0 in 0 W/m2
07:15 34 °F 32.9 °F 30.2 in Calm     96% 0 in 0 W/m2
07:20 34 °F 32.9 °F 30.2 in Calm     96% 0 in 0 W/m2
07:25 33.8 °F 32.7 °F 30.2 in Calm     96% 0 in 0 W/m2
07:35 33.6 °F 32.5 °F 30.2 in Calm     96% 0 in 5 W/m2
07:40 33.6 °F 32.5 °F 30.2 in Calm     96% 0 in 7 W/m2
07:45 33.6 °F 32.5 °F 30.2 in Calm     96% 0 in 11 W/m2
07:50 33.6 °F 32.5 °F 30.2 in Calm     96% 0 in 12 W/m2
07:55 33.4 °F 32.4 °F 30.2 in Calm     96% 0 in 14 W/m2
08:00 33.4 °F 32.4 °F 30.2 in East 0.9 mph 2 mph 96% 0 in 16 W/m2
08:05 33.3 °F 32.2 °F 30.2 in Calm   1 mph 96% 0 in 19 W/m2
08:10 32.9 °F 31.8 °F 30.2 in Calm     96% 0 in 23 W/m2
08:15 32.7 °F 31.6 °F 30.2 in Calm     96% 0 in 26 W/m2
08:25 32.5 °F 31.5 °F 30.2 in Calm     96% 0 in 37 W/m2
08:30 32.5 °F 31.5 °F 30.2 in Calm     96% 0 in 32 W/m2
08:35 32.7 °F 31.6 °F 30.2 in Calm     96% 0 in 33 W/m2
08:40 33.1 °F 32 °F 30.2 in Calm     96% 0 in 39 W/m2
08:45 33.3 °F 32.2 °F 30.2 in Calm     96% 0 in 40 W/m2
08:50 33.4 °F 32.4 °F 30.2 in Calm     96% 0 in 42 W/m2
08:55 33.6 °F 32.9 °F 30.2 in Calm     97% 0 in 74 W/m2
09:00 34 °F 33.3 °F 30.2 in Calm     97% 0 in 72 W/m2
09:05 34.2 °F 33.1 °F 30.2 in Calm     96% 0 in 76 W/m2
09:10 34.3 °F 33.6 °F 30.2 in Calm     97% 0 in 56 W/m2
09:15 34.5 °F 33.8 °F 30.2 in Calm     97% 0 in 60 W/m2
09:20 34.7 °F 34 °F 30.2 in ENE 0.9 mph 2 mph 97% 0 in 67 W/m2
09:25 35.1 °F 34.3 °F 30.2 in ESE 2 mph 3 mph 97% 0 in 74 W/m2
09:30 35.1 °F 34.3 °F 30.2 in Calm     97% 0 in 70 W/m2
09:35 35.2 °F 34.5 °F 30.2 in ENE 0.9 mph 3 mph 97% 0 in 74 W/m2
09:40 35.2 °F 34.5 °F 30.2 in Calm   2 mph 97% 0 in 58 W/m2
09:45 35.2 °F 34.5 °F 30.2 in Calm     97% 0 in 53 W/m2
09:50 35.2 °F 34.5 °F 30.2 in Calm   2 mph 97% 0 in 53 W/m2
09:55 35.4 °F 34.7 °F 30.2 in Calm     97% 0 in 60 W/m2
10:00 35.6 °F 34.9 °F 30.2 in Calm     97% 0 in 60 W/m2
10:05 36 °F 35.2 °F 30.2 in Calm     97% 0 in 65 W/m2
10:10 36.3 °F 35.6 °F 30.2 in ENE 2 mph 3 mph 97% 0 in 65 W/m2
10:15 36.9 °F 36.1 °F 30.2 in ENE 2 mph 2 mph 97% 0 in 69 W/m2
10:20 36.9 °F 36.1 °F 30.2 in East 0.9 mph 3 mph 97% 0 in 102 W/m2
10:25 36.9 °F 36.1 °F 30.2 in East 0.9 mph 3 mph 97% 0 in 109 W/m2
10:30 36.9 °F 36.1 °F 30.2 in East 0.9 mph 2 mph 97% 0 in 125 W/m2
10:35 37 °F 36.3 °F 30.2 in ESE 0.9 mph 3 mph 97% 0 in 118 W/m2
10:40 37.2 °F 36.5 °F 30.2 in ENE 0.9 mph 2 mph 97% 0 in 118 W/m2
10:45 37.4 °F 36.7 °F 30.2 in Calm   3 mph 97% 0 in 104 W/m2
10:51 37.6 °F 36.9 °F 30.2 in ENE 0.9 mph 2 mph 97% 0 in 125 W/m2
10:56 37.8 °F 37 °F 30.2 in Calm   1 mph 97% 0 in 113 W/m2
11:01 37.9 °F 37.2 °F 30.2 in Calm   1 mph 97% 0 in 90 W/m2
11:06 37.9 °F 37.2 °F 30.2 in Calm     97% 0 in 70 W/m2
11:11 38.1 °F 37.4 °F 30.2 in Calm     97% 0 in 72 W/m2
11:16 38.5 °F 37.8 °F 30.2 in Calm   1 mph 97% 0 in 67 W/m2
11:21 38.8 °F 38.1 °F 30.2 in Calm     97% 0 in 69 W/m2
11:26 39.2 °F 38.5 °F 30.2 in Calm   2 mph 97% 0 in 67 W/m2
11:31 39.6 °F 38.8 °F 30.2 in East 2 mph 3 mph 97% 0 in 77 W/m2
11:36 39.7 °F 39 °F 30.2 in ENE 2 mph 3 mph 97% 0 in 83 W/m2
11:41 39.7 °F 39 °F 30.2 in ESE 0.9 mph 3 mph 97% 0 in 100 W/m2
11:46 39.7 °F 39 °F 30.2 in ESE 2 mph 4 mph 97% 0 in 149 W/m2
11:51 39.9 °F 39.2 °F 30.2 in ENE 2 mph 3 mph 97% 0 in 148 W/m2
11:56 39.9 °F 39.2 °F 30.2 in ESE 2 mph 3 mph 97% 0 in 162 W/m2
12:01 39.9 °F 39.2 °F 30.2 in ENE 2 mph 3 mph 97% 0 in 162 W/m2
12:06 39.9 °F 39.2 °F 30.2 in ESE 0.9 mph 2 mph 97% 0 in 174 W/m2
12:11 40.3 °F 39.6 °F 30.2 in ESE 2 mph 3 mph 97% 0 in 174 W/m2
12:16 40.5 °F 39.7 °F 30.2 in East 0.9 mph 3 mph 97% 0 in 169 W/m2
12:21 40.6 °F 39.9 °F 30.2 in East 2 mph 3 mph 97% 0 in 155 W/m2
12:26 40.6 °F 39.9 °F 30.2 in East 0.9 mph 4 mph 97% 0 in 151 W/m2
12:31 40.6 °F 39.9 °F 30.2 in ESE 2 mph 2 mph 97% 0 in 169 W/m2
12:36 40.6 °F 39.9 °F 30.2 in Calm   4 mph 97% 0 in 174 W/m2
12:41 40.6 °F 39.9 °F 30.2 in East 2 mph 3 mph 97% 0 in 188 W/m2
12:46 40.8 °F 40.1 °F 30.2 in Calm   2 mph 97% 0 in 179 W/m2
12:51 41 °F 40.3 °F 30.2 in Calm   1 mph 97% 0 in 162 W/m2
12:56 41 °F 40.3 °F 30.2 in NE 0.9 mph 3 mph 97% 0 in 163 W/m2
13:01 40.8 °F 40.1 °F 30.2 in Calm   2 mph 97% 0 in 118 W/m2
13:06 41.2 °F 40.5 °F 30.2 in Calm   1 mph 97% 0 in 134 W/m2
13:11 41.4 °F 40.6 °F 30.2 in ESE 2 mph 3 mph 97% 0 in 83 W/m2
13:16 41.5 °F 40.8 °F 30.2 in ENE 0.9 mph 2 mph 97% 0 in 100 W/m2
13:21 41.7 °F 41 °F 30.2 in ENE 2 mph 3 mph 97% 0 in 102 W/m2
13:26 42.1 °F 41.4 °F 30.2 in East 0.9 mph 2 mph 97% 0 in 100 W/m2
13:31 42.4 °F 41.7 °F 30.2 in NE 2 mph 2 mph 97% 0 in 125 W/m2
13:36 43 °F 42.3 °F 30.2 in SE 2 mph 2 mph 97% 0 in 149 W/m2
13:41 43.3 °F 42.6 °F 30.2 in ESE 2 mph 3 mph 97% 0 in 206 W/m2
13:46 43.7 °F 43 °F 30.2 in ESE 0.9 mph 3 mph 97% 0 in 186 W/m2
13:51 44.1 °F 43.3 °F 30.2 in ESE 2 mph 3 mph 97% 0 in 107 W/m2
13:56 44.4 °F 43.7 °F 30.2 in ESE 2 mph 2 mph 97% 0 in 98 W/m2
14:01 44.8 °F 44.1 °F 30.2 in ENE 0.9 mph 1 mph 97% 0 in 81 W/m2
14:06 45.1 °F 44.4 °F 30.2 in ESE 0.9 mph 2 mph 97% 0 in 74 W/m2
14:11 45.1 °F 44.1 °F 30.2 in Calm   2 mph 96% 0 in 74 W/m2
14:16 45.3 °F 44.1 °F 30.2 in ESE 2 mph 2 mph 95% 0 in 65 W/m2
14:21 45.7 °F 44.4 °F 30.2 in ESE 0.9 mph 2 mph 95% 0 in 70 W/m2
14:26 45.9 °F 44.2 °F 30.2 in Calm   1 mph 94% 0 in 70 W/m2
14:31 45.9 °F 43.9 °F 30.2 in Calm   2 mph 93% 0 in 67 W/m2
14:36 46 °F 44.1 °F 30.2 in Calm     93% 0 in 63 W/m2
14:41 46 °F 43.9 °F 30.2 in Calm   1 mph 92% 0 in 63 W/m2
14:46 46.2 °F 44.1 °F 30.2 in Calm     92% 0 in 62 W/m2
14:51 46.6 °F 44.1 °F 30.2 in Calm     91% 0 in 63 W/m2
14:56 46.6 °F 43.9 °F 30.2 in Calm     90% 0 in 69 W/m2
15:01 46.8 °F 44.1 °F 30.2 in Calm     90% 0 in 72 W/m2
15:06 46.9 °F 44.2 °F 30.2 in Calm     90% 0 in 72 W/m2
15:11 46.9 °F 43.9 °F 30.2 in Calm     89% 0 in 65 W/m2
15:16 47.1 °F 43.7 °F 30.2 in Calm     88% 0 in 63 W/m2
15:21 47.1 °F 43.7 °F 30.2 in Calm     88% 0 in 62 W/m2
15:26 47.1 °F 43.7 °F 30.2 in Calm     88% 0 in 54 W/m2
15:31 47.1 °F 43.7 °F 30.2 in Calm     88% 0 in 47 W/m2
15:36 47.3 °F 43.9 °F 30.2 in Calm     88% 0 in 44 W/m2
15:41 47.1 °F 44.1 °F 30.2 in Calm     89% 0 in 40 W/m2
15:46 46.9 °F 43.9 °F 30.2 in Calm     89% 0 in 35 W/m2
15:51 46.9 °F 43.9 °F 30.2 in Calm     89% 0 in 30 W/m2
15:56 46.8 °F 43.7 °F 30.2 in Calm     89% 0 in 28 W/m2
16:01 46.4 °F 43.3 °F 30.2 in Calm     89% 0 in 25 W/m2
16:06 46.2 °F 43.2 °F 30.2 in Calm     89% 0 in 25 W/m2
16:11 45.9 °F 42.8 °F 30.2 in Calm     89% 0 in 23 W/m2
16:16 45.5 °F 42.8 °F 30.2 in Calm     90% 0 in 21 W/m2
16:21 45.1 °F 42.4 °F 30.2 in Calm     90% 0 in 19 W/m2
16:26 45 °F 42.3 °F 30.2 in Calm     90% 0 in 16 W/m2
16:31 44.6 °F 41.9 °F 30.2 in Calm     90% 0 in 14 W/m2
16:36 44.2 °F 41.5 °F 30.2 in Calm     90% 0 in 11 W/m2
16:41 44.1 °F 41.5 °F 30.2 in Calm     91% 0 in 9 W/m2
16:46 43.9 °F 41.4 °F 30.2 in Calm     91% 0 in 7 W/m2
16:52 43.5 °F 41.4 °F 30.2 in Calm     92% 0 in 7 W/m2
16:57 43.3 °F 41.2 °F 30.2 in Calm     92% 0 in 5 W/m2
17:02 43 °F 40.8 °F 30.2 in Calm     92% 0 in 0 W/m2
17:07 42.8 °F 40.6 °F 30.2 in Calm     92% 0 in 0 W/m2
17:12 42.4 °F 40.3 °F 30.2 in Calm     92% 0 in 0 W/m2
17:17 42.4 °F 40.3 °F 30.2 in Calm     92% 0 in 0 W/m2
17:22 42.1 °F 39.9 °F 30.2 in Calm     92% 0 in 0 W/m2
17:27 41.9 °F 40.1 °F 30.2 in Calm     93% 0 in 0 W/m2
17:32 41.7 °F 39.9 °F 30.2 in Calm     93% 0 in 0 W/m2
17:37 41.5 °F 39.7 °F 30.2 in Calm     93% 0 in 0 W/m2
17:42 41.4 °F 39.6 °F 30.2 in Calm     93% 0 in 0 W/m2
17:47 41.2 °F 39.4 °F 30.2 in Calm     93% 0 in 0 W/m2
17:52 41.2 °F 39.4 °F 30.2 in Calm     93% 0 in 0 W/m2
17:57 40.8 °F 39.2 °F 30.2 in Calm     94% 0 in 0 W/m2
18:02 40.8 °F 39.2 °F 30.2 in Calm     94% 0 in 0 W/m2
18:07 40.6 °F 39 °F 30.2 in Calm     94% 0 in 0 W/m2
18:12 40.5 °F 38.8 °F 30.2 in Calm     94% 0 in 0 W/m2
18:17 40.3 °F 38.7 °F 30.2 in Calm     94% 0 in 0 W/m2
18:22 40.1 °F 38.5 °F 30.2 in Calm     94% 0 in 0 W/m2
18:27 39.9 °F 38.3 °F 30.2 in Calm     94% 0 in 0 W/m2
18:32 40.1 °F 38.8 °F 30.3 in Calm     95% 0 in 0 W/m2
18:37 40.1 °F 38.8 °F 30.3 in Calm     95% 0 in 0 W/m2
18:47 39.7 °F 38.5 °F 30.3 in Calm     95% 0 in 0 W/m2
18:52 39.7 °F 38.5 °F 30.3 in Calm     95% 0 in 0 W/m2
18:57 39.6 °F 38.3 °F 30.3 in Calm     95% 0 in 0 W/m2
19:02 39.6 °F 38.3 °F 30.3 in Calm     95% 0 in 0 W/m2
19:07 39.6 °F 38.3 °F 30.3 in Calm     95% 0 in 0 W/m2
19:12 39.6 °F 38.3 °F 30.3 in Calm     95% 0 in 0 W/m2
19:17 39.4 °F 38.1 °F 30.3 in Calm     95% 0 in 0 W/m2
19:22 39.6 °F 38.3 °F 30.3 in Calm     95% 0 in 0 W/m2
19:27 39.7 °F 38.5 °F 30.3 in Calm   3 mph 95% 0 in 0 W/m2
19:32 39.9 °F 38.7 °F 30.3 in WNW 0.9 mph 3 mph 95% 0 in 0 W/m2
19:37 39.9 °F 38.8 °F 30.3 in Calm   1 mph 96% 0 in 0 W/m2
19:42 40.1 °F 39 °F 30.3 in Calm   2 mph 96% 0 in 0 W/m2
19:47 40.3 °F 39.2 °F 30.3 in Calm   1 mph 96% 0 in 0 W/m2
19:52 40.3 °F 39.2 °F 30.3 in Calm   2 mph 96% 0 in 0 W/m2
19:57 40.3 °F 39.2 °F 30.3 in Calm   1 mph 96% 0 in 0 W/m2
20:02 40.5 °F 39.4 °F 30.3 in Calm   2 mph 96% 0 in 0 W/m2
20:07 40.5 °F 39.4 °F 30.3 in Calm     96% 0 in 0 W/m2
20:12 40.3 °F 39.2 °F 30.3 in Calm     96% 0 in 0 W/m2
20:17 40.3 °F 39.2 °F 30.3 in Calm     96% 0 in 0 W/m2
20:22 40.1 °F 39 °F 30.3 in Calm     96% 0 in 0 W/m2
20:27 39.9 °F 38.8 °F 30.3 in Calm     96% 0 in 0 W/m2
20:32 39.9 °F 38.8 °F 30.3 in Calm     96% 0 in 0 W/m2
20:37 39.7 °F 38.7 °F 30.3 in Calm     96% 0 in 0 W/m2
20:42 39.6 °F 38.5 °F 30.3 in Calm     96% 0 in 0 W/m2
20:47 39.4 °F 38.1 °F 30.3 in Calm     95% 0 in 0 W/m2
20:52 39 °F 37.8 °F 30.3 in Calm     95% 0 in 0 W/m2
20:57 38.8 °F 37.6 °F 30.3 in Calm     95% 0 in 0 W/m2
21:02 38.7 °F 37.4 °F 30.3 in Calm     95% 0 in 0 W/m2
21:07 38.5 °F 37.2 °F 30.3 in Calm     95% 0 in 0 W/m2
21:12 38.5 °F 37.4 °F 30.3 in Calm     96% 0 in 0 W/m2
21:17 38.3 °F 37.2 °F 30.3 in Calm     96% 0 in 0 W/m2
21:22 38.1 °F 37 °F 30.3 in Calm     96% 0 in 0 W/m2
21:27 37.9 °F 36.7 °F 30.3 in Calm     95% 0 in 0 W/m2
21:32 37.9 °F 36.9 °F 30.3 in Calm     96% 0 in 0 W/m2
21:37 37.8 °F 36.7 °F 30.3 in Calm     96% 0 in 0 W/m2
21:42 37.6 °F 36.5 °F 30.3 in Calm     96% 0 in 0 W/m2
21:47 37.6 °F 36.5 °F 30.3 in Calm     96% 0 in 0 W/m2
21:52 37.2 °F 36.1 °F 30.3 in Calm     96% 0 in 0 W/m2
21:57 37.2 °F 36.1 °F 30.3 in Calm     96% 0 in 0 W/m2
22:02 37 °F 36 °F 30.3 in Calm     96% 0 in 0 W/m2
22:07 37 °F 36 °F 30.3 in Calm     96% 0 in 0 W/m2
22:12 36.9 °F 35.8 °F 30.3 in Calm     96% 0 in 0 W/m2
22:17 36.7 °F 35.6 °F 30.3 in Calm     96% 0 in 0 W/m2
22:22 36.7 °F 35.6 °F 30.3 in Calm     96% 0 in 0 W/m2
22:27 36.5 °F 35.4 °F 30.3 in Calm     96% 0 in 0 W/m2
22:32 36.3 °F 35.2 °F 30.3 in Calm     96% 0 in 0 W/m2
22:37 36.1 °F 35.1 °F 30.3 in Calm     96% 0 in 0 W/m2
22:42 36.1 °F 35.1 °F 30.3 in Calm     96% 0 in 0 W/m2
22:47 36 °F 34.9 °F 30.3 in Calm     96% 0 in 0 W/m2
22:52 36 °F 34.9 °F 30.3 in Calm     96% 0 in 0 W/m2
22:57 36 °F 34.9 °F 30.3 in Calm     96% 0 in 0 W/m2
23:02 35.8 °F 34.7 °F 30.3 in Calm     96% 0 in 0 W/m2
23:07 35.8 °F 34.7 °F 30.3 in Calm     96% 0 in 0 W/m2
23:12 35.8 °F 34.7 °F 30.3 in Calm     96% 0 in 0 W/m2
23:17 35.6 °F 34.5 °F 30.3 in Calm     96% 0 in 0 W/m2
23:22 35.4 °F 34.3 °F 30.3 in Calm     96% 0 in 0 W/m2
23:27 35.2 °F 34.2 °F 30.3 in Calm     96% 0 in 0 W/m2
23:33 35.2 °F 34.2 °F 30.3 in Calm     96% 0 in 0 W/m2
23:38 35.1 °F 34 °F 30.3 in Calm     96% 0 in 0 W/m2
23:43 34.9 °F 33.8 °F 30.3 in Calm     96% 0 in 0 W/m2
23:48 34.9 °F 33.8 °F 30.3 in Calm     96% 0 in 0 W/m2
23:53 34.9 °F 33.8 °F 30.3 in Calm     96% 0 in 0 W/m2
23:58 34.7 °F 33.6 °F 30.3 in Calm     96% 0 in 0 W/m2
Juneau County Weather
Compliments of Weather Underground - 4 mb